sensor_id;sensor_type;location;lat;lon;timestamp;P1;durP1;ratioP1;P2;durP2;ratioP2
60318;SDS011;46163;52.306;5.634;2023-07-28T00:02:10;7.10;;;6.32;;
60318;SDS011;46163;52.306;5.634;2023-07-28T00:04:36;8.50;;;6.95;;
60318;SDS011;46163;52.306;5.634;2023-07-28T00:07:02;6.72;;;6.07;;
60318;SDS011;46163;52.306;5.634;2023-07-28T00:09:29;11.43;;;6.55;;
60318;SDS011;46163;52.306;5.634;2023-07-28T00:11:56;13.55;;;6.40;;
60318;SDS011;46163;52.306;5.634;2023-07-28T00:14:22;8.45;;;6.18;;
60318;SDS011;46163;52.306;5.634;2023-07-28T00:16:50;9.95;;;6.43;;
60318;SDS011;46163;52.306;5.634;2023-07-28T00:19:17;7.28;;;5.65;;
60318;SDS011;46163;52.306;5.634;2023-07-28T00:21:43;8.48;;;5.78;;
60318;SDS011;46163;52.306;5.634;2023-07-28T00:24:11;5.80;;;4.88;;
60318;SDS011;46163;52.306;5.634;2023-07-28T00:26:37;7.20;;;5.70;;
60318;SDS011;46163;52.306;5.634;2023-07-28T00:29:03;6.43;;;5.03;;
60318;SDS011;46163;52.306;5.634;2023-07-28T00:31:32;11.77;;;5.95;;
60318;SDS011;46163;52.306;5.634;2023-07-28T00:33:57;7.30;;;5.03;;
60318;SDS011;46163;52.306;5.634;2023-07-28T00:36:23;7.93;;;4.78;;
60318;SDS011;46163;52.306;5.634;2023-07-28T00:38:49;5.05;;;4.55;;
60318;SDS011;46163;52.306;5.634;2023-07-28T00:41:15;6.57;;;4.80;;
60318;SDS011;46163;52.306;5.634;2023-07-28T00:43:41;6.20;;;4.90;;
60318;SDS011;46163;52.306;5.634;2023-07-28T00:46:07;6.53;;;4.75;;
60318;SDS011;46163;52.306;5.634;2023-07-28T00:48:35;6.90;;;4.93;;
60318;SDS011;46163;52.306;5.634;2023-07-28T00:51:00;8.20;;;4.82;;
60318;SDS011;46163;52.306;5.634;2023-07-28T00:53:26;4.85;;;4.32;;
60318;SDS011;46163;52.306;5.634;2023-07-28T00:55:54;5.78;;;4.10;;
60318;SDS011;46163;52.306;5.634;2023-07-28T00:58:21;6.90;;;4.35;;
60318;SDS011;46163;52.306;5.634;2023-07-28T01:00:47;12.98;;;4.57;;
60318;SDS011;46163;52.306;5.634;2023-07-28T01:03:13;5.88;;;4.63;;
60318;SDS011;46163;52.306;5.634;2023-07-28T01:08:16;10.63;;;5.22;;
60318;SDS011;46163;52.306;5.634;2023-07-28T01:10:50;8.07;;;5.00;;
60318;SDS011;46163;52.306;5.634;2023-07-28T01:13:16;7.50;;;5.32;;
60318;SDS011;46163;52.306;5.634;2023-07-28T01:15:42;8.35;;;5.60;;
60318;SDS011;46163;52.306;5.634;2023-07-28T01:18:08;5.40;;;4.63;;
60318;SDS011;46163;52.306;5.634;2023-07-28T01:20:34;14.43;;;5.75;;
60318;SDS011;46163;52.306;5.634;2023-07-28T01:23:20;10.45;;;5.60;;
60318;SDS011;46163;52.306;5.634;2023-07-28T01:26:05;7.05;;;4.93;;
60318;SDS011;46163;52.306;5.634;2023-07-28T01:28:32;8.52;;;5.10;;
60318;SDS011;46163;52.306;5.634;2023-07-28T01:31:03;7.90;;;5.82;;
60318;SDS011;46163;52.306;5.634;2023-07-28T01:33:30;8.13;;;5.30;;
60318;SDS011;46163;52.306;5.634;2023-07-28T01:35:56;7.70;;;5.85;;
60318;SDS011;46163;52.306;5.634;2023-07-28T01:38:23;9.75;;;5.60;;
60318;SDS011;46163;52.306;5.634;2023-07-28T01:40:49;10.00;;;5.40;;
60318;SDS011;46163;52.306;5.634;2023-07-28T01:43:15;9.15;;;6.25;;
60318;SDS011;46163;52.306;5.634;2023-07-28T01:45:41;9.98;;;6.20;;
60318;SDS011;46163;52.306;5.634;2023-07-28T01:48:06;11.70;;;5.97;;
60318;SDS011;46163;52.306;5.634;2023-07-28T01:50:34;6.72;;;5.15;;
60318;SDS011;46163;52.306;5.634;2023-07-28T01:53:01;10.02;;;6.10;;
60318;SDS011;46163;52.306;5.634;2023-07-28T01:55:27;10.27;;;6.32;;
60318;SDS011;46163;52.306;5.634;2023-07-28T01:57:56;11.95;;;6.88;;
60318;SDS011;46163;52.306;5.634;2023-07-28T02:00:24;10.77;;;6.57;;
60318;SDS011;46163;52.306;5.634;2023-07-28T02:02:50;8.15;;;6.47;;
60318;SDS011;46163;52.306;5.634;2023-07-28T02:05:16;15.23;;;6.57;;
60318;SDS011;46163;52.306;5.634;2023-07-28T02:07:42;12.32;;;6.85;;
60318;SDS011;46163;52.306;5.634;2023-07-28T02:10:09;10.95;;;6.05;;
60318;SDS011;46163;52.306;5.634;2023-07-28T02:12:38;9.93;;;7.28;;
60318;SDS011;46163;52.306;5.634;2023-07-28T02:15:07;9.50;;;6.82;;
60318;SDS011;46163;52.306;5.634;2023-07-28T02:17:33;10.55;;;6.88;;
60318;SDS011;46163;52.306;5.634;2023-07-28T02:19:59;10.52;;;7.10;;
60318;SDS011;46163;52.306;5.634;2023-07-28T02:22:27;12.07;;;7.20;;
60318;SDS011;46163;52.306;5.634;2023-07-28T02:24:53;9.63;;;7.30;;
60318;SDS011;46163;52.306;5.634;2023-07-28T02:27:18;11.38;;;7.40;;
60318;SDS011;46163;52.306;5.634;2023-07-28T02:29:44;9.70;;;6.82;;
60318;SDS011;46163;52.306;5.634;2023-07-28T02:32:11;10.45;;;7.07;;
60318;SDS011;46163;52.306;5.634;2023-07-28T02:34:36;12.07;;;7.90;;
60318;SDS011;46163;52.306;5.634;2023-07-28T02:37:02;16.45;;;8.75;;
60318;SDS011;46163;52.306;5.634;2023-07-28T02:39:28;12.48;;;8.15;;
60318;SDS011;46163;52.306;5.634;2023-07-28T02:41:54;16.20;;;8.77;;
60318;SDS011;46163;52.306;5.634;2023-07-28T02:44:19;14.02;;;8.35;;
60318;SDS011;46163;52.306;5.634;2023-07-28T02:46:45;16.27;;;7.75;;
60318;SDS011;46163;52.306;5.634;2023-07-28T02:49:11;14.52;;;8.02;;
60318;SDS011;46163;52.306;5.634;2023-07-28T02:51:37;11.10;;;7.43;;
60318;SDS011;46163;52.306;5.634;2023-07-28T02:54:02;10.40;;;7.50;;
60318;SDS011;46163;52.306;5.634;2023-07-28T02:56:28;11.23;;;8.43;;
60318;SDS011;46163;52.306;5.634;2023-07-28T02:58:54;11.05;;;7.20;;
60318;SDS011;46163;52.306;5.634;2023-07-28T03:01:20;14.50;;;8.30;;
60318;SDS011;46163;52.306;5.634;2023-07-28T03:03:46;14.30;;;7.90;;
60318;SDS011;46163;52.306;5.634;2023-07-28T03:06:12;11.00;;;7.65;;
60318;SDS011;46163;52.306;5.634;2023-07-28T03:08:38;12.70;;;7.80;;
60318;SDS011;46163;52.306;5.634;2023-07-28T03:11:04;11.52;;;8.18;;
60318;SDS011;46163;52.306;5.634;2023-07-28T03:13:30;14.18;;;9.25;;
60318;SDS011;46163;52.306;5.634;2023-07-28T03:15:55;11.52;;;8.02;;
60318;SDS011;46163;52.306;5.634;2023-07-28T03:18:21;14.25;;;7.85;;
60318;SDS011;46163;52.306;5.634;2023-07-28T03:20:47;10.70;;;7.72;;
60318;SDS011;46163;52.306;5.634;2023-07-28T03:23:13;13.30;;;8.70;;
60318;SDS011;46163;52.306;5.634;2023-07-28T03:25:39;13.95;;;7.60;;
60318;SDS011;46163;52.306;5.634;2023-07-28T03:28:05;12.52;;;8.52;;
60318;SDS011;46163;52.306;5.634;2023-07-28T03:30:30;14.80;;;8.10;;
60318;SDS011;46163;52.306;5.634;2023-07-28T03:32:56;15.70;;;9.38;;
60318;SDS011;46163;52.306;5.634;2023-07-28T03:35:22;12.00;;;7.70;;
60318;SDS011;46163;52.306;5.634;2023-07-28T03:37:48;17.05;;;8.52;;
60318;SDS011;46163;52.306;5.634;2023-07-28T03:40:14;18.20;;;8.77;;
60318;SDS011;46163;52.306;5.634;2023-07-28T03:42:39;14.95;;;8.77;;
60318;SDS011;46163;52.306;5.634;2023-07-28T03:45:05;11.07;;;8.18;;
60318;SDS011;46163;52.306;5.634;2023-07-28T03:47:32;10.40;;;7.57;;
60318;SDS011;46163;52.306;5.634;2023-07-28T03:49:58;13.23;;;8.70;;
60318;SDS011;46163;52.306;5.634;2023-07-28T03:52:23;15.38;;;9.30;;
60318;SDS011;46163;52.306;5.634;2023-07-28T03:54:49;14.05;;;9.65;;
60318;SDS011;46163;52.306;5.634;2023-07-28T03:57:15;11.40;;;8.52;;
60318;SDS011;46163;52.306;5.634;2023-07-28T03:59:40;12.98;;;8.38;;
60318;SDS011;46163;52.306;5.634;2023-07-28T04:02:06;18.90;;;8.68;;
60318;SDS011;46163;52.306;5.634;2023-07-28T04:04:32;14.90;;;9.23;;
60318;SDS011;46163;52.306;5.634;2023-07-28T04:06:57;20.70;;;9.65;;
60318;SDS011;46163;52.306;5.634;2023-07-28T04:09:23;12.98;;;8.70;;
60318;SDS011;46163;52.306;5.634;2023-07-28T04:11:49;12.75;;;9.40;;
60318;SDS011;46163;52.306;5.634;2023-07-28T04:14:15;12.77;;;8.35;;
60318;SDS011;46163;52.306;5.634;2023-07-28T04:16:41;20.65;;;10.35;;
60318;SDS011;46163;52.306;5.634;2023-07-28T04:19:07;16.33;;;9.55;;
60318;SDS011;46163;52.306;5.634;2023-07-28T04:21:32;13.55;;;7.32;;
60318;SDS011;46163;52.306;5.634;2023-07-28T04:23:58;12.80;;;9.38;;
60318;SDS011;46163;52.306;5.634;2023-07-28T04:26:24;17.52;;;9.50;;
60318;SDS011;46163;52.306;5.634;2023-07-28T04:28:50;16.70;;;9.52;;
60318;SDS011;46163;52.306;5.634;2023-07-28T04:31:16;14.50;;;9.25;;
60318;SDS011;46163;52.306;5.634;2023-07-28T04:33:42;22.17;;;10.20;;
60318;SDS011;46163;52.306;5.634;2023-07-28T04:36:08;15.70;;;9.20;;
60318;SDS011;46163;52.306;5.634;2023-07-28T04:38:34;12.23;;;9.30;;
60318;SDS011;46163;52.306;5.634;2023-07-28T04:41:00;17.52;;;9.70;;
60318;SDS011;46163;52.306;5.634;2023-07-28T04:43:26;20.75;;;9.50;;
60318;SDS011;46163;52.306;5.634;2023-07-28T04:45:51;13.93;;;9.40;;
60318;SDS011;46163;52.306;5.634;2023-07-28T04:48:17;19.42;;;9.75;;
60318;SDS011;46163;52.306;5.634;2023-07-28T04:50:44;13.40;;;9.25;;
60318;SDS011;46163;52.306;5.634;2023-07-28T04:53:09;16.80;;;9.25;;
60318;SDS011;46163;52.306;5.634;2023-07-28T04:55:35;16.70;;;9.65;;
60318;SDS011;46163;52.306;5.634;2023-07-28T04:58:00;20.20;;;9.45;;
60318;SDS011;46163;52.306;5.634;2023-07-28T05:00:26;13.63;;;8.95;;
60318;SDS011;46163;52.306;5.634;2023-07-28T05:02:51;14.23;;;8.85;;
60318;SDS011;46163;52.306;5.634;2023-07-28T05:05:17;13.07;;;9.65;;
60318;SDS011;46163;52.306;5.634;2023-07-28T05:07:42;19.02;;;9.55;;
60318;SDS011;46163;52.306;5.634;2023-07-28T05:10:08;19.60;;;9.65;;
60318;SDS011;46163;52.306;5.634;2023-07-28T05:12:34;14.02;;;9.38;;
60318;SDS011;46163;52.306;5.634;2023-07-28T05:15:00;23.20;;;9.13;;
60318;SDS011;46163;52.306;5.634;2023-07-28T05:17:26;18.20;;;10.23;;
60318;SDS011;46163;52.306;5.634;2023-07-28T05:19:51;18.90;;;8.75;;
60318;SDS011;46163;52.306;5.634;2023-07-28T05:22:17;14.93;;;9.20;;
60318;SDS011;46163;52.306;5.634;2023-07-28T05:24:43;19.13;;;9.63;;
60318;SDS011;46163;52.306;5.634;2023-07-28T05:27:09;17.80;;;8.90;;
60318;SDS011;46163;52.306;5.634;2023-07-28T05:29:36;17.27;;;9.60;;
60318;SDS011;46163;52.306;5.634;2023-07-28T05:32:01;19.95;;;10.23;;
60318;SDS011;46163;52.306;5.634;2023-07-28T05:34:29;24.35;;;9.98;;
60318;SDS011;46163;52.306;5.634;2023-07-28T05:36:55;13.27;;;9.48;;
60318;SDS011;46163;52.306;5.634;2023-07-28T05:39:21;12.93;;;9.52;;
60318;SDS011;46163;52.306;5.634;2023-07-28T05:41:47;12.35;;;9.43;;
60318;SDS011;46163;52.306;5.634;2023-07-28T05:44:13;16.08;;;9.88;;
60318;SDS011;46163;52.306;5.634;2023-07-28T05:46:39;15.00;;;8.70;;
60318;SDS011;46163;52.306;5.634;2023-07-28T05:49:05;18.42;;;10.13;;
60318;SDS011;46163;52.306;5.634;2023-07-28T05:51:30;20.15;;;10.60;;
60318;SDS011;46163;52.306;5.634;2023-07-28T05:53:56;24.58;;;10.65;;
60318;SDS011;46163;52.306;5.634;2023-07-28T05:56:22;17.65;;;10.25;;
60318;SDS011;46163;52.306;5.634;2023-07-28T05:58:47;13.75;;;10.07;;
60318;SDS011;46163;52.306;5.634;2023-07-28T06:01:13;15.55;;;9.82;;
60318;SDS011;46163;52.306;5.634;2023-07-28T06:03:39;22.35;;;10.10;;
60318;SDS011;46163;52.306;5.634;2023-07-28T06:06:04;18.88;;;10.80;;
60318;SDS011;46163;52.306;5.634;2023-07-28T06:08:33;19.27;;;10.85;;
60318;SDS011;46163;52.306;5.634;2023-07-28T06:10:59;16.20;;;10.70;;
60318;SDS011;46163;52.306;5.634;2023-07-28T06:13:25;20.50;;;10.65;;
60318;SDS011;46163;52.306;5.634;2023-07-28T06:15:52;19.95;;;10.77;;
60318;SDS011;46163;52.306;5.634;2023-07-28T06:18:19;18.08;;;11.18;;
60318;SDS011;46163;52.306;5.634;2023-07-28T06:20:50;18.98;;;10.52;;
60318;SDS011;46163;52.306;5.634;2023-07-28T06:23:15;14.88;;;10.68;;
60318;SDS011;46163;52.306;5.634;2023-07-28T06:25:41;15.88;;;10.27;;
60318;SDS011;46163;52.306;5.634;2023-07-28T06:28:11;17.10;;;10.80;;
60318;SDS011;46163;52.306;5.634;2023-07-28T06:30:37;19.17;;;11.57;;
60318;SDS011;46163;52.306;5.634;2023-07-28T06:33:05;23.02;;;12.40;;
60318;SDS011;46163;52.306;5.634;2023-07-28T06:35:32;20.77;;;11.32;;
60318;SDS011;46163;52.306;5.634;2023-07-28T06:37:59;20.55;;;10.60;;
60318;SDS011;46163;52.306;5.634;2023-07-28T06:40:25;15.45;;;10.95;;
60318;SDS011;46163;52.306;5.634;2023-07-28T06:42:53;23.90;;;11.25;;
60318;SDS011;46163;52.306;5.634;2023-07-28T06:47:44;16.58;;;10.38;;
60318;SDS011;46163;52.306;5.634;2023-07-28T06:50:10;18.98;;;10.20;;
60318;SDS011;46163;52.306;5.634;2023-07-28T06:52:36;18.33;;;9.32;;
60318;SDS011;46163;52.306;5.634;2023-07-28T06:55:02;14.65;;;9.68;;
60318;SDS011;46163;52.306;5.634;2023-07-28T06:57:28;13.98;;;8.70;;
60318;SDS011;46163;52.306;5.634;2023-07-28T07:02:21;13.88;;;8.80;;
60318;SDS011;46163;52.306;5.634;2023-07-28T07:04:47;13.02;;;8.10;;
60318;SDS011;46163;52.306;5.634;2023-07-28T07:07:15;10.65;;;7.63;;
60318;SDS011;46163;52.306;5.634;2023-07-28T07:09:40;10.73;;;7.45;;
60318;SDS011;46163;52.306;5.634;2023-07-28T07:12:07;9.48;;;7.82;;
60318;SDS011;46163;52.306;5.634;2023-07-28T07:14:36;10.85;;;7.85;;
60318;SDS011;46163;52.306;5.634;2023-07-28T07:17:01;11.85;;;7.25;;
60318;SDS011;46163;52.306;5.634;2023-07-28T07:19:29;8.82;;;6.78;;
60318;SDS011;46163;52.306;5.634;2023-07-28T07:21:57;8.95;;;7.63;;
60318;SDS011;46163;52.306;5.634;2023-07-28T07:24:23;11.30;;;7.88;;
60318;SDS011;46163;52.306;5.634;2023-07-28T07:26:50;9.45;;;6.63;;
60318;SDS011;46163;52.306;5.634;2023-07-28T07:29:16;7.80;;;6.30;;
60318;SDS011;46163;52.306;5.634;2023-07-28T07:31:41;7.72;;;6.63;;
60318;SDS011;46163;52.306;5.634;2023-07-28T07:34:06;8.20;;;6.38;;
60318;SDS011;46163;52.306;5.634;2023-07-28T07:36:32;8.65;;;6.80;;
60318;SDS011;46163;52.306;5.634;2023-07-28T07:38:58;11.48;;;6.90;;
60318;SDS011;46163;52.306;5.634;2023-07-28T07:43:54;10.98;;;7.18;;
60318;SDS011;46163;52.306;5.634;2023-07-28T07:46:20;8.38;;;6.72;;
60318;SDS011;46163;52.306;5.634;2023-07-28T07:48:46;14.45;;;6.68;;
60318;SDS011;46163;52.306;5.634;2023-07-28T07:51:11;12.35;;;7.97;;
60318;SDS011;46163;52.306;5.634;2023-07-28T07:53:37;10.90;;;7.38;;
60318;SDS011;46163;52.306;5.634;2023-07-28T07:56:03;10.25;;;7.45;;
60318;SDS011;46163;52.306;5.634;2023-07-28T07:58:30;9.52;;;7.30;;
60318;SDS011;46163;52.306;5.634;2023-07-28T08:00:55;13.23;;;7.75;;
60318;SDS011;46163;52.306;5.634;2023-07-28T08:03:21;12.80;;;8.05;;
60318;SDS011;46163;52.306;5.634;2023-07-28T08:05:47;14.90;;;7.97;;
60318;SDS011;46163;52.306;5.634;2023-07-28T08:08:12;10.88;;;7.78;;
60318;SDS011;46163;52.306;5.634;2023-07-28T08:10:42;12.95;;;8.43;;
60318;SDS011;46163;52.306;5.634;2023-07-28T08:13:07;12.73;;;9.05;;
60318;SDS011;46163;52.306;5.634;2023-07-28T08:15:33;11.55;;;8.10;;
60318;SDS011;46163;52.306;5.634;2023-07-28T08:17:58;13.50;;;8.40;;
60318;SDS011;46163;52.306;5.634;2023-07-28T08:20:24;15.98;;;9.35;;
60318;SDS011;46163;52.306;5.634;2023-07-28T08:22:50;11.38;;;8.95;;
60318;SDS011;46163;52.306;5.634;2023-07-28T08:25:15;11.38;;;8.32;;
60318;SDS011;46163;52.306;5.634;2023-07-28T08:27:41;11.77;;;9.20;;
60318;SDS011;46163;52.306;5.634;2023-07-28T08:30:06;13.23;;;9.27;;
60318;SDS011;46163;52.306;5.634;2023-07-28T08:32:35;11.68;;;9.35;;
60318;SDS011;46163;52.306;5.634;2023-07-28T08:35:00;10.65;;;9.02;;
60318;SDS011;46163;52.306;5.634;2023-07-28T08:37:27;14.38;;;9.32;;
60318;SDS011;46163;52.306;5.634;2023-07-28T08:39:55;12.25;;;9.10;;
60318;SDS011;46163;52.306;5.634;2023-07-28T08:42:21;13.32;;;8.38;;
60318;SDS011;46163;52.306;5.634;2023-07-28T08:44:49;12.95;;;8.68;;
60318;SDS011;46163;52.306;5.634;2023-07-28T08:47:17;12.65;;;8.55;;
60318;SDS011;46163;52.306;5.634;2023-07-28T08:49:46;13.10;;;8.20;;
60318;SDS011;46163;52.306;5.634;2023-07-28T08:52:14;11.90;;;8.57;;
60318;SDS011;46163;52.306;5.634;2023-07-28T08:54:44;12.75;;;8.25;;
60318;SDS011;46163;52.306;5.634;2023-07-28T08:57:09;10.63;;;7.65;;
60318;SDS011;46163;52.306;5.634;2023-07-28T08:59:37;9.73;;;7.20;;
60318;SDS011;46163;52.306;5.634;2023-07-28T09:02:08;9.20;;;6.93;;
60318;SDS011;46163;52.306;5.634;2023-07-28T09:04:35;11.55;;;7.22;;
60318;SDS011;46163;52.306;5.634;2023-07-28T09:07:00;8.13;;;6.68;;
60318;SDS011;46163;52.306;5.634;2023-07-28T09:09:32;7.00;;;6.28;;
60318;SDS011;46163;52.306;5.634;2023-07-28T09:11:59;9.55;;;6.53;;
60318;SDS011;46163;52.306;5.634;2023-07-28T09:14:25;8.57;;;6.75;;
60318;SDS011;46163;52.306;5.634;2023-07-28T09:16:51;10.15;;;6.63;;
60318;SDS011;46163;52.306;5.634;2023-07-28T09:19:19;10.43;;;6.55;;
60318;SDS011;46163;52.306;5.634;2023-07-28T09:21:47;8.48;;;6.70;;
60318;SDS011;46163;52.306;5.634;2023-07-28T09:24:28;7.80;;;6.57;;
60318;SDS011;46163;52.306;5.634;2023-07-28T09:26:56;10.10;;;6.63;;
60318;SDS011;46163;52.306;5.634;2023-07-28T09:29:26;12.45;;;6.85;;
60318;SDS011;46163;52.306;5.634;2023-07-28T09:31:53;8.30;;;6.47;;
60318;SDS011;46163;52.306;5.634;2023-07-28T09:34:28;9.77;;;5.95;;
60318;SDS011;46163;52.306;5.634;2023-07-28T09:36:54;9.15;;;6.40;;
60318;SDS011;46163;52.306;5.634;2023-07-28T09:39:20;6.85;;;5.25;;
60318;SDS011;46163;52.306;5.634;2023-07-28T09:41:47;6.00;;;4.68;;
60318;SDS011;46163;52.306;5.634;2023-07-28T09:44:13;6.97;;;4.07;;
60318;SDS011;46163;52.306;5.634;2023-07-28T09:46:59;4.53;;;3.70;;
60318;SDS011;46163;52.306;5.634;2023-07-28T09:49:29;5.63;;;3.50;;
60318;SDS011;46163;52.306;5.634;2023-07-28T09:52:08;4.40;;;3.95;;
60318;SDS011;46163;52.306;5.634;2023-07-28T09:54:44;5.70;;;3.92;;
60318;SDS011;46163;52.306;5.634;2023-07-28T09:57:13;4.50;;;3.92;;
60318;SDS011;46163;52.306;5.634;2023-07-28T09:59:45;5.63;;;4.05;;
60318;SDS011;46163;52.306;5.634;2023-07-28T10:02:13;6.30;;;3.95;;
60318;SDS011;46163;52.306;5.634;2023-07-28T10:04:39;4.53;;;4.07;;
60318;SDS011;46163;52.306;5.634;2023-07-28T10:07:07;7.78;;;3.88;;
60318;SDS011;46163;52.306;5.634;2023-07-28T10:09:33;5.97;;;4.05;;
60318;SDS011;46163;52.306;5.634;2023-07-28T10:12:00;4.85;;;3.75;;
60318;SDS011;46163;52.306;5.634;2023-07-28T10:14:34;6.78;;;3.67;;
60318;SDS011;46163;52.306;5.634;2023-07-28T10:17:03;3.92;;;3.53;;
60318;SDS011;46163;52.306;5.634;2023-07-28T10:19:34;5.68;;;3.40;;
60318;SDS011;46163;52.306;5.634;2023-07-28T10:22:08;3.95;;;3.30;;
60318;SDS011;46163;52.306;5.634;2023-07-28T10:30:02;2.95;;;2.65;;
60318;SDS011;46163;52.306;5.634;2023-07-28T10:32:36;4.20;;;2.78;;
60318;SDS011;46163;52.306;5.634;2023-07-28T10:35:26;4.35;;;3.00;;
60318;SDS011;46163;52.306;5.634;2023-07-28T10:37:53;3.23;;;2.83;;
60318;SDS011;46163;52.306;5.634;2023-07-28T10:40:35;4.57;;;2.80;;
60318;SDS011;46163;52.306;5.634;2023-07-28T10:43:03;3.35;;;2.97;;
60318;SDS011;46163;52.306;5.634;2023-07-28T10:45:32;4.28;;;2.67;;
60318;SDS011;46163;52.306;5.634;2023-07-28T10:47:58;3.60;;;2.83;;
60318;SDS011;46163;52.306;5.634;2023-07-28T10:50:31;2.75;;;2.47;;
60318;SDS011;46163;52.306;5.634;2023-07-28T10:52:57;3.40;;;2.60;;
60318;SDS011;46163;52.306;5.634;2023-07-28T10:55:26;4.95;;;2.75;;
60318;SDS011;46163;52.306;5.634;2023-07-28T10:57:53;4.45;;;2.80;;
60318;SDS011;46163;52.306;5.634;2023-07-28T11:00:22;3.20;;;2.83;;
60318;SDS011;46163;52.306;5.634;2023-07-28T11:05:23;3.78;;;2.80;;
60318;SDS011;46163;52.306;5.634;2023-07-28T11:07:59;11.23;;;3.03;;
60318;SDS011;46163;52.306;5.634;2023-07-28T11:10:29;5.07;;;3.10;;
60318;SDS011;46163;52.306;5.634;2023-07-28T11:12:57;4.70;;;2.92;;
60318;SDS011;46163;52.306;5.634;2023-07-28T11:15:25;3.72;;;2.92;;
60318;SDS011;46163;52.306;5.634;2023-07-28T11:17:54;3.60;;;2.53;;
60318;SDS011;46163;52.306;5.634;2023-07-28T11:22:52;6.38;;;2.17;;
60318;SDS011;46163;52.306;5.634;2023-07-28T11:27:46;4.38;;;2.15;;
60318;SDS011;46163;52.306;5.634;2023-07-28T11:30:12;2.22;;;1.90;;
60318;SDS011;46163;52.306;5.634;2023-07-28T11:32:39;4.85;;;2.40;;
60318;SDS011;46163;52.306;5.634;2023-07-28T11:35:11;3.25;;;2.63;;
60318;SDS011;46163;52.306;5.634;2023-07-28T11:37:40;3.25;;;2.42;;
60318;SDS011;46163;52.306;5.634;2023-07-28T11:40:07;4.90;;;2.58;;
60318;SDS011;46163;52.306;5.634;2023-07-28T11:42:37;4.68;;;2.75;;
60318;SDS011;46163;52.306;5.634;2023-07-28T11:45:04;4.03;;;2.70;;
60318;SDS011;46163;52.306;5.634;2023-07-28T11:47:32;3.50;;;2.88;;
60318;SDS011;46163;52.306;5.634;2023-07-28T11:49:58;3.50;;;2.63;;
60318;SDS011;46163;52.306;5.634;2023-07-28T11:52:32;6.95;;;2.72;;
60318;SDS011;46163;52.306;5.634;2023-07-28T11:55:02;3.80;;;2.42;;
60318;SDS011;46163;52.306;5.634;2023-07-28T11:57:29;2.40;;;2.20;;
60318;SDS011;46163;52.306;5.634;2023-07-28T11:59:58;4.75;;;2.50;;
60318;SDS011;46163;52.306;5.634;2023-07-28T12:02:25;2.85;;;2.33;;
60318;SDS011;46163;52.306;5.634;2023-07-28T12:04:52;4.07;;;2.50;;
60318;SDS011;46163;52.306;5.634;2023-07-28T12:07:19;3.05;;;2.30;;
60318;SDS011;46163;52.306;5.634;2023-07-28T12:09:52;2.47;;;2.22;;
60318;SDS011;46163;52.306;5.634;2023-07-28T12:12:20;4.45;;;2.20;;
60318;SDS011;46163;52.306;5.634;2023-07-28T12:14:46;2.92;;;2.63;;
60318;SDS011;46163;52.306;5.634;2023-07-28T12:17:20;3.42;;;2.40;;
60318;SDS011;46163;52.306;5.634;2023-07-28T12:20:03;3.80;;;2.20;;
60318;SDS011;46163;52.306;5.634;2023-07-28T12:22:39;4.60;;;2.53;;
60318;SDS011;46163;52.306;5.634;2023-07-28T12:25:06;4.00;;;2.42;;
60318;SDS011;46163;52.306;5.634;2023-07-28T12:27:35;6.50;;;2.35;;
60318;SDS011;46163;52.306;5.634;2023-07-28T12:30:01;3.25;;;2.47;;
60318;SDS011;46163;52.306;5.634;2023-07-28T12:32:28;3.30;;;2.47;;
60318;SDS011;46163;52.306;5.634;2023-07-28T12:34:53;3.72;;;2.53;;
60318;SDS011;46163;52.306;5.634;2023-07-28T12:37:19;3.35;;;2.60;;
60318;SDS011;46163;52.306;5.634;2023-07-28T12:39:45;3.85;;;2.72;;
60318;SDS011;46163;52.306;5.634;2023-07-28T12:42:12;2.42;;;2.22;;
60318;SDS011;46163;52.306;5.634;2023-07-28T12:44:38;3.17;;;2.45;;
60318;SDS011;46163;52.306;5.634;2023-07-28T12:47:04;2.95;;;2.40;;
60318;SDS011;46163;52.306;5.634;2023-07-28T12:49:32;3.80;;;2.63;;
60318;SDS011;46163;52.306;5.634;2023-07-28T12:52:00;4.22;;;2.80;;
60318;SDS011;46163;52.306;5.634;2023-07-28T12:54:31;3.47;;;2.40;;
60318;SDS011;46163;52.306;5.634;2023-07-28T12:56:57;3.30;;;2.47;;
60318;SDS011;46163;52.306;5.634;2023-07-28T12:59:23;4.00;;;2.33;;
60318;SDS011;46163;52.306;5.634;2023-07-28T13:01:48;2.58;;;2.35;;
60318;SDS011;46163;52.306;5.634;2023-07-28T13:06:43;2.70;;;2.22;;
60318;SDS011;46163;52.306;5.634;2023-07-28T13:09:09;2.95;;;2.22;;
60318;SDS011;46163;52.306;5.634;2023-07-28T13:11:37;2.30;;;2.10;;
60318;SDS011;46163;52.306;5.634;2023-07-28T13:14:02;2.72;;;2.05;;
60318;SDS011;46163;52.306;5.634;2023-07-28T13:16:28;3.25;;;2.45;;
60318;SDS011;46163;52.306;5.634;2023-07-28T13:18:53;2.70;;;2.28;;
60318;SDS011;46163;52.306;5.634;2023-07-28T13:21:19;2.70;;;2.30;;
60318;SDS011;46163;52.306;5.634;2023-07-28T13:23:44;4.35;;;2.00;;
60318;SDS011;46163;52.306;5.634;2023-07-28T13:26:09;2.42;;;2.13;;
60318;SDS011;46163;52.306;5.634;2023-07-28T13:28:35;2.83;;;2.17;;
60318;SDS011;46163;52.306;5.634;2023-07-28T13:31:03;3.45;;;1.90;;
60318;SDS011;46163;52.306;5.634;2023-07-28T13:33:29;5.28;;;2.30;;
60318;SDS011;46163;52.306;5.634;2023-07-28T13:35:55;2.28;;;2.05;;
60318;SDS011;46163;52.306;5.634;2023-07-28T13:38:21;2.05;;;1.85;;
60318;SDS011;46163;52.306;5.634;2023-07-28T13:40:46;2.08;;;1.92;;
60318;SDS011;46163;52.306;5.634;2023-07-28T13:43:12;2.70;;;1.98;;
60318;SDS011;46163;52.306;5.634;2023-07-28T13:45:37;1.80;;;1.70;;
60318;SDS011;46163;52.306;5.634;2023-07-28T13:48:03;2.88;;;2.20;;
60318;SDS011;46163;52.306;5.634;2023-07-28T13:50:28;5.03;;;2.17;;
60318;SDS011;46163;52.306;5.634;2023-07-28T13:52:56;3.97;;;2.50;;
60318;SDS011;46163;52.306;5.634;2023-07-28T13:55:21;3.00;;;2.30;;
60318;SDS011;46163;52.306;5.634;2023-07-28T13:57:47;3.38;;;2.20;;
60318;SDS011;46163;52.306;5.634;2023-07-28T14:00:12;4.43;;;2.47;;
60318;SDS011;46163;52.306;5.634;2023-07-28T14:02:38;4.28;;;2.20;;
60318;SDS011;46163;52.306;5.634;2023-07-28T14:05:04;3.08;;;2.20;;
60318;SDS011;46163;52.306;5.634;2023-07-28T14:07:33;4.95;;;2.38;;
60318;SDS011;46163;52.306;5.634;2023-07-28T14:09:59;2.97;;;2.10;;
60318;SDS011;46163;52.306;5.634;2023-07-28T14:12:25;5.15;;;2.60;;
60318;SDS011;46163;52.306;5.634;2023-07-28T14:14:51;4.32;;;2.30;;
60318;SDS011;46163;52.306;5.634;2023-07-28T14:17:16;2.20;;;2.00;;
60318;SDS011;46163;52.306;5.634;2023-07-28T14:19:42;3.38;;;2.22;;
60318;SDS011;46163;52.306;5.634;2023-07-28T14:22:07;3.15;;;2.20;;
60318;SDS011;46163;52.306;5.634;2023-07-28T14:24:33;3.20;;;2.25;;
60318;SDS011;46163;52.306;5.634;2023-07-28T14:26:59;2.80;;;2.10;;
60318;SDS011;46163;52.306;5.634;2023-07-28T14:29:24;3.03;;;2.30;;
60318;SDS011;46163;52.306;5.634;2023-07-28T14:31:50;2.70;;;2.30;;
60318;SDS011;46163;52.306;5.634;2023-07-28T14:34:15;6.10;;;2.75;;
60318;SDS011;46163;52.306;5.634;2023-07-28T14:36:41;4.63;;;2.35;;
60318;SDS011;46163;52.306;5.634;2023-07-28T14:39:06;3.13;;;2.00;;
60318;SDS011;46163;52.306;5.634;2023-07-28T14:41:32;3.35;;;2.05;;
60318;SDS011;46163;52.306;5.634;2023-07-28T14:43:58;3.13;;;2.40;;
60318;SDS011;46163;52.306;5.634;2023-07-28T14:46:24;3.22;;;2.30;;
60318;SDS011;46163;52.306;5.634;2023-07-28T14:51:17;3.15;;;2.15;;
60318;SDS011;46163;52.306;5.634;2023-07-28T14:53:42;2.25;;;1.95;;
60318;SDS011;46163;52.306;5.634;2023-07-28T14:56:10;3.13;;;2.10;;
60318;SDS011;46163;52.306;5.634;2023-07-28T14:58:36;2.95;;;2.03;;
60318;SDS011;46163;52.306;5.634;2023-07-28T15:01:02;3.92;;;2.42;;
60318;SDS011;46163;52.306;5.634;2023-07-28T15:05:58;3.10;;;2.25;;
60318;SDS011;46163;52.306;5.634;2023-07-28T15:08:23;4.28;;;2.30;;
60318;SDS011;46163;52.306;5.634;2023-07-28T15:10:49;2.60;;;2.08;;